createdAt,value
2018-03-31T00:01:36.542Z,9.77
2018-03-31T00:04:03.626Z,11.63
2018-03-31T00:06:30.646Z,9.60
2018-03-31T00:08:57.662Z,10.33
2018-03-31T00:11:24.706Z,10.73
2018-03-31T00:13:51.731Z,9.90
2018-03-31T00:16:18.761Z,10.10
2018-03-31T00:18:45.783Z,11.17
2018-03-31T00:21:12.868Z,10.37
2018-03-31T00:23:39.914Z,10.57
2018-03-31T00:26:06.939Z,11.17
2018-03-31T00:28:34.032Z,10.37
2018-03-31T00:31:01.049Z,10.33
2018-03-31T00:33:28.246Z,10.43
2018-03-31T00:35:55.490Z,11.03
2018-03-31T00:38:22.597Z,10.70
2018-03-31T00:40:49.614Z,11.30
2018-03-31T00:43:16.837Z,11.37
2018-03-31T00:45:43.870Z,11.13
2018-03-31T00:48:10.885Z,12.50
2018-03-31T00:50:37.929Z,10.20
2018-03-31T00:53:04.958Z,11.40
2018-03-31T00:55:32.053Z,12.27
2018-03-31T00:57:59.098Z,11.77
2018-03-31T01:00:26.122Z,10.57
2018-03-31T01:02:53.152Z,10.57
2018-03-31T01:05:21.114Z,9.97
2018-03-31T01:07:48.143Z,10.63
2018-03-31T01:10:15.417Z,10.23
2018-03-31T01:12:42.734Z,10.33
2018-03-31T01:15:09.928Z,10.00
2018-03-31T01:17:37.147Z,9.93
2018-03-31T01:20:04.174Z,9.70
2018-03-31T01:22:31.195Z,10.37
2018-03-31T01:24:58.222Z,10.40
2018-03-31T01:27:25.320Z,9.70
2018-03-31T01:29:52.647Z,9.97
2018-03-31T01:32:19.666Z,9.93
2018-03-31T01:34:46.681Z,9.37
2018-03-31T01:37:13.713Z,9.63
2018-03-31T01:39:40.790Z,9.93
2018-03-31T01:42:08.026Z,9.50
2018-03-31T01:44:35.243Z,9.20
2018-03-31T01:47:02.269Z,9.40
2018-03-31T01:49:29.437Z,10.47
2018-03-31T01:51:56.470Z,10.40
2018-03-31T01:54:23.706Z,10.20
2018-03-31T01:56:50.809Z,10.03
2018-03-31T01:59:17.827Z,9.83
2018-03-31T02:01:44.842Z,10.47
2018-03-31T02:04:11.867Z,10.30
2018-03-31T02:06:38.894Z,9.63
2018-03-31T02:09:05.918Z,9.87
2018-03-31T02:11:33.086Z,9.80
2018-03-31T02:14:00.336Z,10.60
2018-03-31T02:16:27.442Z,10.00
2018-03-31T02:18:54.466Z,10.00
2018-03-31T02:21:21.490Z,9.33
2018-03-31T02:23:48.506Z,9.70
2018-03-31T02:26:15.535Z,9.97
2018-03-31T02:28:42.579Z,9.63
2018-03-31T02:31:09.686Z,10.67
2018-03-31T02:33:36.862Z,11.97
2018-03-31T02:36:04.083Z,10.17
2018-03-31T02:38:31.127Z,11.07
2018-03-31T02:40:58.147Z,12.40
2018-03-31T02:43:25.178Z,11.53
2018-03-31T02:45:52.217Z,11.33
2018-03-31T02:48:19.311Z,11.53
2018-03-31T02:50:46.576Z,11.43
2018-03-31T02:53:13.770Z,12.60
2018-03-31T02:55:41.010Z,15.37
2018-03-31T02:58:08.032Z,11.50
2018-03-31T03:00:35.058Z,12.13
2018-03-31T03:03:02.236Z,10.50
2018-03-31T03:05:29.574Z,10.10
2018-03-31T03:07:56.770Z,10.47
2018-03-31T03:10:23.791Z,11.67
2018-03-31T03:12:51.022Z,13.27
2018-03-31T03:15:18.046Z,14.00
2018-03-31T03:17:45.354Z,11.70
2018-03-31T03:20:12.403Z,11.23
2018-03-31T03:22:39.588Z,12.07
2018-03-31T03:25:06.618Z,11.63
2018-03-31T03:27:33.709Z,11.73
2018-03-31T03:30:00.798Z,10.40
2018-03-31T03:32:27.841Z,10.17
2018-03-31T03:34:54.865Z,10.67
2018-03-31T03:37:21.907Z,10.00
2018-03-31T03:39:49.062Z,10.00
2018-03-31T03:42:16.315Z,9.93
2018-03-31T03:44:43.531Z,9.63
2018-03-31T03:47:10.559Z,10.70
2018-03-31T03:49:37.764Z,11.10
2018-03-31T03:52:04.980Z,9.00
2018-03-31T03:54:32.198Z,10.40
2018-03-31T03:56:59.288Z,9.47
2018-03-31T03:59:26.533Z,10.53
2018-03-31T04:01:53.637Z,10.07
2018-03-31T04:04:20.826Z,9.37
2018-03-31T04:06:48.077Z,10.07
2018-03-31T04:09:15.138Z,10.10
2018-03-31T04:11:42.196Z,10.37
2018-03-31T04:14:09.282Z,10.13
2018-03-31T04:16:36.302Z,10.60
2018-03-31T04:19:03.526Z,11.47
2018-03-31T04:21:30.666Z,11.33
2018-03-31T04:23:57.686Z,12.03
2018-03-31T04:26:24.876Z,10.53
2018-03-31T04:28:52.003Z,11.63
2018-03-31T04:31:19.340Z,11.87
2018-03-31T04:33:46.556Z,11.70
2018-03-31T04:36:13.773Z,11.40
2018-03-31T04:38:40.850Z,12.40
2018-03-31T04:41:08.107Z,12.00
2018-03-31T04:43:35.141Z,10.70
2018-03-31T04:46:02.166Z,12.70
2018-03-31T04:48:29.259Z,13.37
2018-03-31T04:50:56.297Z,13.50
2018-03-31T04:53:23.349Z,17.63
2018-03-31T04:55:50.601Z,17.47
2018-03-31T04:58:17.624Z,14.27
2018-03-31T05:00:44.840Z,13.77
2018-03-31T05:03:11.894Z,11.93
2018-03-31T05:05:39.015Z,10.70
2018-03-31T05:08:06.041Z,12.47
2018-03-31T05:10:33.298Z,12.83
2018-03-31T05:13:00.591Z,12.83
2018-03-31T05:15:27.616Z,10.60
2018-03-31T05:17:54.761Z,10.67
2018-03-31T05:20:21.790Z,11.30
2018-03-31T05:22:49.082Z,10.23
2018-03-31T05:25:16.105Z,10.40
2018-03-31T05:27:43.414Z,11.80
2018-03-31T05:30:10.453Z,14.60
2018-03-31T05:32:37.490Z,12.40
2018-03-31T05:35:04.760Z,12.53
2018-03-31T05:37:31.854Z,10.50
2018-03-31T05:39:59.252Z,13.43
2018-03-31T05:42:26.275Z,12.80
2018-03-31T05:44:53.297Z,12.10
2018-03-31T05:47:20.334Z,7.97
2018-03-31T05:49:47.354Z,8.63
2018-03-31T05:52:14.382Z,8.23
2018-03-31T05:54:41.404Z,9.33
2018-03-31T05:57:08.426Z,9.53
2018-03-31T05:59:35.446Z,11.10
2018-03-31T06:02:02.465Z,14.77
2018-03-31T06:04:29.508Z,13.40
2018-03-31T06:06:56.536Z,11.03
2018-03-31T06:09:23.662Z,12.20
2018-03-31T06:11:50.684Z,13.03
2018-03-31T06:14:17.886Z,8.90
2018-03-31T06:16:45.135Z,8.97
2018-03-31T06:19:12.178Z,8.43
2018-03-31T06:21:39.201Z,8.77
2018-03-31T06:24:06.232Z,8.07
2018-03-31T06:26:33.501Z,8.17
2018-03-31T06:29:00.548Z,10.20
2018-03-31T06:31:27.566Z,8.73
2018-03-31T06:33:54.598Z,10.17
2018-03-31T06:36:21.619Z,11.83
2018-03-31T06:38:48.877Z,14.93
2018-03-31T06:41:16.092Z,16.90
2018-03-31T06:43:43.301Z,16.23
2018-03-31T06:46:10.526Z,16.87
2018-03-31T06:48:37.842Z,16.53
2018-03-31T06:51:05.059Z,26.97
2018-03-31T06:53:32.114Z,12.13
2018-03-31T06:55:59.161Z,10.23
2018-03-31T06:58:26.407Z,9.07
2018-03-31T07:00:53.724Z,10.27
2018-03-31T07:03:20.763Z,9.20
2018-03-31T07:05:47.782Z,12.40
2018-03-31T07:08:14.821Z,14.23
2018-03-31T07:10:41.846Z,14.07
2018-03-31T07:13:08.874Z,11.73
2018-03-31T07:15:36.120Z,18.53
2018-03-31T07:18:03.208Z,15.50
2018-03-31T07:20:30.444Z,15.40
2018-03-31T07:22:57.668Z,13.67
2018-03-31T07:25:24.701Z,15.43
2018-03-31T07:27:51.730Z,10.77
2018-03-31T07:30:18.807Z,8.27
2018-03-31T07:32:45.830Z,12.13
2018-03-31T07:35:12.908Z,7.93
2018-03-31T07:37:39.922Z,7.53
2018-03-31T07:40:07.090Z,7.17
2018-03-31T07:42:34.272Z,7.23
2018-03-31T07:45:01.515Z,6.47
2018-03-31T07:47:28.542Z,6.83
2018-03-31T07:49:55.564Z,6.67
2018-03-31T07:52:22.638Z,6.27
2018-03-31T07:54:49.755Z,6.40
2018-03-31T07:57:16.766Z,6.63
2018-03-31T07:59:43.795Z,6.33
2018-03-31T08:02:10.818Z,7.40
2018-03-31T08:04:37.962Z,6.83
2018-03-31T08:07:05.120Z,6.73
2018-03-31T08:09:32.186Z,6.07
2018-03-31T08:11:59.202Z,6.77
2018-03-31T08:14:26.218Z,6.33
2018-03-31T08:16:53.420Z,6.03
2018-03-31T08:19:20.439Z,6.00
2018-03-31T08:21:47.471Z,5.60
2018-03-31T08:24:14.668Z,5.90
2018-03-31T08:26:41.985Z,6.53
2018-03-31T08:29:09.006Z,6.03
2018-03-31T08:31:36.221Z,5.50
2018-03-31T08:34:03.255Z,5.40
2018-03-31T08:36:30.282Z,5.27
2018-03-31T08:38:57.314Z,5.60
2018-03-31T08:41:24.338Z,5.23
2018-03-31T08:43:51.463Z,5.40
2018-03-31T08:46:18.724Z,6.93
2018-03-31T08:48:45.752Z,5.57
2018-03-31T08:51:12.787Z,5.97
2018-03-31T08:53:39.806Z,5.40
2018-03-31T08:56:07.078Z,5.10
2018-03-31T08:58:34.294Z,6.23
2018-03-31T09:01:01.362Z,5.03
2018-03-31T09:03:28.627Z,6.00
2018-03-31T09:05:55.647Z,8.33
2018-03-31T09:08:22.859Z,6.33
2018-03-31T09:10:50.032Z,6.40
2018-03-31T09:13:17.058Z,5.60
2018-03-31T09:15:44.306Z,6.10
2018-03-31T09:18:11.370Z,5.10
2018-03-31T09:20:38.386Z,5.07
2018-03-31T09:23:05.721Z,5.10
2018-03-31T09:25:32.763Z,5.60
2018-03-31T09:27:59.777Z,5.70
2018-03-31T09:30:26.798Z,5.97
2018-03-31T09:32:53.836Z,6.53
2018-03-31T09:35:20.922Z,5.60
2018-03-31T09:37:47.946Z,6.73
2018-03-31T09:40:14.970Z,6.10
2018-03-31T09:42:42.156Z,6.13
2018-03-31T09:45:09.177Z,6.03
2018-03-31T09:47:36.300Z,6.10
2018-03-31T09:50:03.533Z,6.30
2018-03-31T09:52:30.626Z,5.17
2018-03-31T09:54:57.867Z,5.47
2018-03-31T09:57:24.881Z,6.33
2018-03-31T09:59:51.902Z,5.60
2018-03-31T10:02:19.295Z,5.23
2018-03-31T10:04:46.507Z,5.47
2018-03-31T10:07:13.593Z,5.80
2018-03-31T10:09:40.863Z,6.97
2018-03-31T10:12:08.079Z,5.60
2018-03-31T10:14:35.095Z,5.83
2018-03-31T10:17:02.118Z,6.27
2018-03-31T10:19:29.134Z,5.90
2018-03-31T10:21:56.172Z,6.20
2018-03-31T10:24:23.197Z,5.90
2018-03-31T10:26:50.474Z,5.60
2018-03-31T10:29:17.528Z,7.10
2018-03-31T10:31:44.538Z,5.80
2018-03-31T10:34:11.822Z,5.00
2018-03-31T10:36:38.917Z,5.13
2018-03-31T10:39:05.947Z,4.67
2018-03-31T10:41:32.971Z,4.23
2018-03-31T10:44:00.046Z,4.60
2018-03-31T10:46:27.088Z,5.50
2018-03-31T10:48:54.111Z,5.47
2018-03-31T10:51:21.138Z,3.90
2018-03-31T10:53:48.164Z,4.57
2018-03-31T10:56:15.242Z,4.77
2018-03-31T10:58:42.258Z,5.00
2018-03-31T11:01:09.338Z,3.60
2018-03-31T11:03:36.351Z,3.50
2018-03-31T11:06:03.365Z,3.50
2018-03-31T11:08:30.646Z,3.60
2018-03-31T11:10:57.861Z,3.57
2018-03-31T11:13:24.894Z,3.20
2018-03-31T11:15:51.906Z,2.77
2018-03-31T11:18:19.202Z,3.73
2018-03-31T11:20:46.829Z,3.57
2018-03-31T11:23:14.002Z,2.83
2018-03-31T11:25:41.026Z,3.07
2018-03-31T11:28:08.048Z,2.80
2018-03-31T11:30:35.293Z,3.43
2018-03-31T11:33:02.387Z,2.90
2018-03-31T11:35:29.467Z,3.20
2018-03-31T11:37:56.640Z,4.30
2018-03-31T11:40:23.665Z,4.50
2018-03-31T11:42:50.879Z,4.23
2018-03-31T11:45:18.054Z,5.27
2018-03-31T11:47:45.086Z,5.50
2018-03-31T11:50:12.103Z,5.93
2018-03-31T11:52:39.339Z,5.90
2018-03-31T11:55:06.361Z,5.53
2018-03-31T11:57:33.380Z,5.73
2018-03-31T12:00:00.406Z,5.10
2018-03-31T12:02:27.603Z,5.30
2018-03-31T12:04:54.636Z,5.83
2018-03-31T12:07:21.833Z,5.27
2018-03-31T12:09:48.931Z,5.40
2018-03-31T12:12:16.166Z,5.57
2018-03-31T12:14:43.385Z,6.00
2018-03-31T12:17:10.599Z,7.23
2018-03-31T12:19:37.676Z,6.90
2018-03-31T12:22:04.705Z,5.50
2018-03-31T12:24:31.723Z,4.57
2018-03-31T12:26:58.818Z,5.00
2018-03-31T12:29:26.090Z,5.47
2018-03-31T12:31:53.115Z,5.20
2018-03-31T12:34:20.212Z,5.10
2018-03-31T12:36:47.386Z,5.80
2018-03-31T12:39:14.418Z,6.80
2018-03-31T12:41:41.538Z,5.80
2018-03-31T12:44:08.640Z,7.67
2018-03-31T12:46:35.666Z,5.50
2018-03-31T12:49:02.908Z,6.00
2018-03-31T12:51:29.952Z,6.07
2018-03-31T12:53:57.129Z,5.43
2018-03-31T12:56:24.358Z,6.03
2018-03-31T12:58:51.540Z,5.43
2018-03-31T13:01:18.618Z,5.50
2018-03-31T13:03:45.639Z,6.47
2018-03-31T13:06:12.922Z,6.10
2018-03-31T13:08:39.945Z,5.90
2018-03-31T13:11:06.957Z,6.27
2018-03-31T13:13:34.061Z,6.27
2018-03-31T13:16:01.093Z,6.60
2018-03-31T13:18:28.167Z,7.10
2018-03-31T13:20:55.190Z,6.80
2018-03-31T13:23:22.209Z,5.83
2018-03-31T13:25:49.236Z,6.80
2018-03-31T13:28:16.262Z,6.90
2018-03-31T13:30:43.459Z,6.23
2018-03-31T13:33:10.472Z,6.43
2018-03-31T13:35:37.669Z,6.77
2018-03-31T13:38:04.930Z,6.90
2018-03-31T13:40:31.966Z,6.50
2018-03-31T13:42:58.991Z,7.60
2018-03-31T13:45:26.001Z,6.47
2018-03-31T13:47:53.194Z,6.30
2018-03-31T13:50:20.210Z,6.77
2018-03-31T13:52:47.528Z,6.07
2018-03-31T13:55:14.637Z,6.93
2018-03-31T13:57:41.859Z,6.17
2018-03-31T14:00:09.040Z,5.73
2018-03-31T14:02:36.217Z,5.80
2018-03-31T14:05:03.399Z,5.93
2018-03-31T14:07:30.629Z,6.37
2018-03-31T14:09:57.941Z,5.87
2018-03-31T14:12:25.121Z,5.73
2018-03-31T14:14:52.154Z,5.27
2018-03-31T14:17:19.269Z,5.13
2018-03-31T14:19:46.286Z,6.10
2018-03-31T14:22:13.306Z,5.90
2018-03-31T14:24:40.339Z,6.13
2018-03-31T14:27:07.414Z,5.73
2018-03-31T14:29:34.670Z,6.40
2018-03-31T14:32:01.707Z,6.00
2018-03-31T14:34:28.744Z,5.90
2018-03-31T14:36:55.908Z,6.00
2018-03-31T14:39:22.981Z,5.87
2018-03-31T14:41:49.999Z,5.70
2018-03-31T14:44:17.145Z,5.83
2018-03-31T14:46:44.162Z,5.40
2018-03-31T14:49:11.400Z,5.80
2018-03-31T14:51:38.435Z,6.43
2018-03-31T14:54:05.522Z,6.37
2018-03-31T14:56:32.547Z,5.77
2018-03-31T14:58:59.763Z,6.20
2018-03-31T15:01:26.893Z,6.43
2018-03-31T15:03:53.886Z,5.40
2018-03-31T15:06:20.898Z,6.37
2018-03-31T15:08:47.934Z,6.23
2018-03-31T15:11:15.143Z,6.03
2018-03-31T15:13:42.459Z,7.23
2018-03-31T15:16:09.776Z,6.53
2018-03-31T15:18:37.094Z,7.60
2018-03-31T15:21:04.106Z,7.53
2018-03-31T15:23:31.310Z,6.73
2018-03-31T15:25:58.348Z,7.60
2018-03-31T15:28:25.379Z,7.10
2018-03-31T15:30:52.536Z,7.77
2018-03-31T15:33:19.790Z,6.50
2018-03-31T15:35:47.113Z,6.40
2018-03-31T15:38:14.201Z,6.80
2018-03-31T15:40:41.228Z,7.07
2018-03-31T15:43:09.223Z,7.07
2018-03-31T15:45:36.238Z,6.67
2018-03-31T15:48:03.282Z,7.40
2018-03-31T15:50:30.298Z,6.73
2018-03-31T15:52:57.374Z,6.97
2018-03-31T15:55:24.638Z,5.93
2018-03-31T15:57:51.654Z,6.93
2018-03-31T16:00:18.715Z,7.37
2018-03-31T16:02:45.987Z,7.87
2018-03-31T16:05:13.204Z,8.40
2018-03-31T16:07:40.222Z,7.43
2018-03-31T16:10:07.290Z,7.93
2018-03-31T16:12:34.323Z,8.30
2018-03-31T16:15:01.342Z,6.93
2018-03-31T16:17:28.596Z,7.90
2018-03-31T16:19:55.696Z,8.50
2018-03-31T16:22:22.721Z,8.07
2018-03-31T16:24:49.743Z,7.63
2018-03-31T16:27:17.047Z,8.43
2018-03-31T16:29:44.265Z,7.67
2018-03-31T16:32:11.287Z,7.80
2018-03-31T16:34:38.545Z,7.33
2018-03-31T16:37:05.608Z,7.87
2018-03-31T16:39:32.638Z,8.40
2018-03-31T16:41:59.666Z,7.47
2018-03-31T16:44:26.747Z,8.00
2018-03-31T16:46:53.909Z,7.73
2018-03-31T16:49:20.923Z,8.13
2018-03-31T16:51:47.955Z,7.90
2018-03-31T16:54:15.224Z,7.33
2018-03-31T16:56:42.419Z,8.17
2018-03-31T16:59:09.444Z,8.00
2018-03-31T17:01:36.518Z,8.30
2018-03-31T17:04:03.843Z,8.87
2018-03-31T17:06:30.846Z,9.00
2018-03-31T17:08:57.866Z,7.60
2018-03-31T17:11:25.138Z,7.87
2018-03-31T17:13:52.355Z,7.83
2018-03-31T17:16:19.408Z,7.77
2018-03-31T17:18:46.440Z,7.67
2018-03-31T17:21:13.461Z,7.50
2018-03-31T17:23:40.546Z,7.83
2018-03-31T17:26:07.693Z,7.67
2018-03-31T17:28:34.952Z,7.50
2018-03-31T17:31:01.976Z,7.07
2018-03-31T17:33:29.020Z,7.80
2018-03-31T17:35:56.090Z,7.20
2018-03-31T17:38:23.315Z,7.00
2018-03-31T17:40:50.617Z,7.40
2018-03-31T17:43:17.848Z,7.40
2018-03-31T17:45:44.872Z,11.03
2018-03-31T17:48:11.912Z,8.87
2018-03-31T17:50:39.096Z,8.83
2018-03-31T17:53:06.152Z,8.10
2018-03-31T17:55:33.220Z,7.70
2018-03-31T17:58:00.294Z,6.80
2018-03-31T18:00:27.462Z,8.47
2018-03-31T18:02:54.483Z,8.20
2018-03-31T18:05:21.510Z,7.27
2018-03-31T18:07:48.530Z,6.80
2018-03-31T18:10:15.565Z,7.50
2018-03-31T18:12:42.582Z,7.23
2018-03-31T18:15:09.647Z,6.50
2018-03-31T18:17:36.660Z,6.97
2018-03-31T18:20:03.890Z,7.87
2018-03-31T18:22:30.931Z,8.57
2018-03-31T18:24:57.956Z,7.93
2018-03-31T18:27:25.035Z,7.27
2018-03-31T18:29:52.252Z,7.07
2018-03-31T18:32:19.322Z,7.57
2018-03-31T18:34:46.585Z,7.30
2018-03-31T18:37:13.598Z,6.20
2018-03-31T18:39:40.632Z,6.17
2018-03-31T18:42:07.843Z,6.27
2018-03-31T18:44:35.026Z,7.63
2018-03-31T18:47:02.054Z,7.67
2018-03-31T18:49:29.137Z,5.57
2018-03-31T18:51:56.168Z,6.83
2018-03-31T18:54:23.414Z,6.00
2018-03-31T18:56:50.484Z,7.30
2018-03-31T18:59:17.498Z,6.27
2018-03-31T19:01:44.531Z,6.97
2018-03-31T19:04:11.556Z,7.37
2018-03-31T19:06:38.630Z,6.93
2018-03-31T19:09:05.914Z,7.17
2018-03-31T19:11:32.950Z,6.97
2018-03-31T19:13:59.973Z,6.07
2018-03-31T19:16:32.524Z,6.13
2018-03-31T19:18:59.550Z,7.03
2018-03-31T19:21:26.570Z,5.40
2018-03-31T19:23:53.647Z,5.10
2018-03-31T19:26:20.810Z,5.70
2018-03-31T19:28:47.833Z,5.60
2018-03-31T19:31:14.864Z,5.00
2018-03-31T19:33:42.089Z,5.43
2018-03-31T19:36:14.595Z,4.90
2018-03-31T19:38:41.612Z,5.67
2018-03-31T19:41:08.637Z,5.07
2018-03-31T19:43:35.662Z,6.17
2018-03-31T19:46:02.888Z,5.57
2018-03-31T19:48:29.958Z,5.60
2018-03-31T19:50:57.220Z,5.47
2018-03-31T19:53:24.243Z,5.57
2018-03-31T19:55:51.375Z,5.73
2018-03-31T19:58:18.548Z,6.17
2018-03-31T20:00:45.571Z,5.07
2018-03-31T20:03:12.599Z,6.33
2018-03-31T20:05:39.817Z,5.70
2018-03-31T20:08:06.890Z,6.30
2018-03-31T20:10:33.906Z,6.13
2018-03-31T20:13:01.171Z,5.73
2018-03-31T20:15:28.190Z,5.70
2018-03-31T20:17:55.324Z,6.23
2018-03-31T20:20:22.474Z,6.63
2018-03-31T20:22:49.490Z,6.13
2018-03-31T20:25:16.747Z,5.80
2018-03-31T20:27:43.784Z,6.20
2018-03-31T20:30:10.979Z,5.93
2018-03-31T20:32:38.043Z,6.60
2018-03-31T20:35:05.313Z,6.47
2018-03-31T20:37:32.382Z,5.90
2018-03-31T20:39:59.533Z,6.10
2018-03-31T20:42:26.555Z,5.97
2018-03-31T20:44:53.776Z,6.33
2018-03-31T20:47:20.882Z,7.03
2018-03-31T20:49:48.111Z,6.27
2018-03-31T20:52:15.139Z,5.93
2018-03-31T20:54:42.342Z,5.60
2018-03-31T20:57:09.363Z,5.83
2018-03-31T20:59:36.442Z,5.90
2018-03-31T21:02:03.454Z,5.63
2018-03-31T21:04:30.469Z,5.90
2018-03-31T21:06:57.503Z,6.50
2018-03-31T21:09:24.737Z,5.80
2018-03-31T21:11:51.845Z,6.00
2018-03-31T21:14:18.862Z,6.30
2018-03-31T21:16:46.103Z,5.47
2018-03-31T21:19:13.122Z,5.40
2018-03-31T21:21:40.318Z,5.07
2018-03-31T21:24:07.447Z,5.10
2018-03-31T21:26:34.468Z,5.47
2018-03-31T21:29:01.497Z,5.03
2018-03-31T21:31:28.526Z,4.97
2018-03-31T21:33:55.798Z,4.37
2018-03-31T21:36:23.114Z,4.80
2018-03-31T21:38:50.133Z,4.57
2018-03-31T21:41:17.347Z,5.57
2018-03-31T21:43:44.563Z,5.33
2018-03-31T21:46:11.574Z,4.70
2018-03-31T21:48:38.642Z,4.83
2018-03-31T21:51:05.712Z,5.50
2018-03-31T21:53:32.742Z,4.63
2018-03-31T21:55:59.767Z,5.30
2018-03-31T21:58:26.937Z,4.73
2018-03-31T22:00:54.008Z,4.67
2018-03-31T22:03:21.104Z,5.23
2018-03-31T22:05:48.308Z,5.53
2018-03-31T22:08:15.322Z,5.00
2018-03-31T22:10:42.348Z,4.60
2018-03-31T22:13:14.862Z,5.57
2018-03-31T22:15:47.365Z,4.90
2018-03-31T22:18:14.410Z,5.30
2018-03-31T22:20:41.742Z,5.23
2018-03-31T22:23:08.852Z,5.10
2018-03-31T22:25:36.075Z,5.20
2018-03-31T22:28:03.103Z,4.70
2018-03-31T22:30:30.276Z,5.03
2018-03-31T22:32:57.303Z,5.20
2018-03-31T22:35:24.332Z,5.17
2018-03-31T22:37:51.555Z,5.03
2018-03-31T22:40:18.571Z,4.83
2018-03-31T22:42:45.638Z,4.80
2018-03-31T22:45:12.654Z,4.87
2018-03-31T22:47:39.920Z,5.47
2018-03-31T22:50:06.956Z,4.63
2018-03-31T22:52:33.969Z,4.63
2018-03-31T22:55:01.141Z,4.43
2018-03-31T22:57:28.394Z,4.70
2018-03-31T22:59:55.425Z,4.50
2018-03-31T23:02:22.447Z,4.43
2018-03-31T23:04:49.522Z,4.63
2018-03-31T23:07:16.540Z,3.90
2018-03-31T23:09:43.563Z,4.00
2018-03-31T23:12:10.607Z,3.80
2018-03-31T23:14:37.623Z,4.40
2018-03-31T23:17:04.697Z,4.00
2018-03-31T23:19:31.928Z,3.97
2018-03-31T23:21:58.942Z,4.30
2018-03-31T23:24:25.969Z,3.50
2018-03-31T23:26:52.982Z,4.40
2018-03-31T23:29:20.193Z,3.60
2018-03-31T23:31:47.208Z,4.00
2018-03-31T23:34:14.525Z,3.60
2018-03-31T23:36:41.628Z,4.13
2018-03-31T23:39:08.642Z,3.53
2018-03-31T23:41:35.665Z,3.77
2018-03-31T23:44:02.889Z,3.77
2018-03-31T23:46:30.105Z,3.43
2018-03-31T23:48:57.122Z,3.80
2018-03-31T23:51:24.193Z,3.70
2018-03-31T23:53:51.453Z,4.20
2018-03-31T23:56:18.480Z,3.40
2018-03-31T23:58:45.520Z,4.07
